createdAt,value
2024-01-10T00:02:14.592Z,101860.47
2024-01-10T00:07:16.394Z,101849.19
2024-01-10T00:12:18.087Z,101846.59
2024-01-10T00:17:19.870Z,101842.28
2024-01-10T00:22:21.563Z,101835.31
2024-01-10T00:27:23.205Z,101844.88
2024-01-10T00:32:24.943Z,101845.72
2024-01-10T00:37:28.206Z,101839.66
2024-01-10T00:42:29.839Z,101843.13
2024-01-10T00:47:31.491Z,101841.41
2024-01-10T00:52:33.212Z,101840.50
2024-01-10T00:57:35.038Z,101831.00
2024-01-10T01:02:36.746Z,101839.66
2024-01-10T01:07:38.580Z,101837.91
2024-01-10T01:12:40.899Z,101836.19
2024-01-10T01:17:42.604Z,101837.03
2024-01-10T01:22:44.342Z,101837.94
2024-01-10T01:27:45.929Z,101840.53
2024-01-10T01:32:47.660Z,101835.31
2024-01-10T01:37:49.944Z,101841.41
2024-01-10T01:42:51.604Z,101835.31
2024-01-10T01:47:53.345Z,101828.38
2024-01-10T01:52:55.083Z,101835.31
2024-01-10T01:57:56.836Z,101834.47
2024-01-10T02:03:00.093Z,101815.38
2024-01-10T02:08:01.862Z,101830.97
2024-01-10T02:13:03.640Z,101827.41
2024-01-10T02:18:06.981Z,101821.41
2024-01-10T02:23:08.844Z,101825.78
2024-01-10T02:28:10.540Z,101823.03
2024-01-10T02:33:12.275Z,101817.09
2024-01-10T02:38:14.020Z,101823.91
2024-01-10T02:43:15.770Z,101820.59
2024-01-10T02:48:17.521Z,101817.13
2024-01-10T02:53:19.407Z,101809.28
2024-01-10T02:58:22.419Z,101806.69
2024-01-10T03:03:24.075Z,101798.03
2024-01-10T03:08:25.700Z,101799.75
2024-01-10T03:13:27.368Z,101800.63
2024-01-10T03:18:29.105Z,101809.25
2024-01-10T03:23:30.799Z,101799.72
2024-01-10T03:28:32.444Z,101794.56
2024-01-10T03:33:34.288Z,101795.41
2024-01-10T03:38:35.978Z,101791.09
2024-01-10T03:43:37.615Z,101782.44
2024-01-10T03:48:43.766Z,101770.28
2024-01-10T03:53:50.247Z,101771.13
2024-01-10T03:58:51.955Z,101772.00
2024-01-10T04:03:53.705Z,101764.22
2024-01-10T04:08:55.489Z,101774.56
2024-01-10T04:13:57.240Z,101767.66
2024-01-10T04:19:00.316Z,101766.81
2024-01-10T04:24:02.020Z,101763.34
2024-01-10T04:29:03.795Z,101769.41
2024-01-10T04:34:05.680Z,101768.47
2024-01-10T04:39:07.339Z,101772.84
2024-01-10T04:44:09.021Z,101772.84
2024-01-10T04:49:11.132Z,101782.41
2024-01-10T04:54:12.856Z,101777.22
2024-01-10T04:59:14.523Z,101768.53
2024-01-10T05:04:16.177Z,101772.00
2024-01-10T05:09:17.842Z,101772.88
2024-01-10T05:14:22.864Z,101770.25
2024-01-10T05:19:24.643Z,101772.00
2024-01-10T05:24:26.265Z,101776.34
2024-01-10T05:29:29.038Z,101780.44
2024-01-10T05:34:30.850Z,101774.63
2024-01-10T05:39:33.636Z,101782.41
2024-01-10T05:44:36.351Z,101780.69
2024-01-10T05:49:37.998Z,101777.19
2024-01-10T05:54:40.324Z,101776.38
2024-01-10T05:59:41.926Z,101779.84
2024-01-10T06:04:43.708Z,101780.69
2024-01-10T06:09:45.294Z,101778.09
2024-01-10T06:14:47.517Z,101784.97
2024-01-10T06:19:50.818Z,101792.78
2024-01-10T06:24:52.812Z,101790.13
2024-01-10T06:29:54.968Z,101791.91
2024-01-10T06:34:56.694Z,101781.53
2024-01-10T06:39:58.298Z,101780.66
2024-01-10T06:44:59.951Z,101785.00
2024-01-10T06:50:01.806Z,101781.53
2024-01-10T06:55:05.251Z,101784.16
2024-01-10T07:00:11.992Z,101782.44
2024-01-10T07:05:13.949Z,101791.09
2024-01-10T07:10:15.760Z,101790.22
2024-01-10T07:15:17.378Z,101785.03
2024-01-10T07:20:19.059Z,101785.06
2024-01-10T07:25:23.364Z,101778.97
2024-01-10T07:30:25.343Z,101784.19
2024-01-10T07:35:27.967Z,101781.56
2024-01-10T07:40:29.638Z,101779.84
2024-01-10T07:45:31.646Z,101786.78
2024-01-10T07:50:33.358Z,101784.19
2024-01-10T07:55:34.975Z,101792.84
2024-01-10T08:00:36.598Z,101784.16
2024-01-10T08:05:38.454Z,101782.44
2024-01-10T08:10:41.129Z,101781.56
2024-01-10T08:15:42.800Z,101784.16
2024-01-10T08:20:44.494Z,101771.97
2024-01-10T08:25:46.243Z,101770.22
2024-01-10T08:30:47.944Z,101765.03
2024-01-10T08:35:49.615Z,101761.47
2024-01-10T08:40:51.392Z,101766.69
2024-01-10T08:45:53.069Z,101769.28
2024-01-10T08:50:57.197Z,101770.16
2024-01-10T08:55:59.175Z,101764.88
2024-01-10T09:01:01.000Z,101759.69
2024-01-10T09:06:08.646Z,101763.09
2024-01-10T09:11:13.376Z,101769.13
2024-01-10T09:16:15.138Z,101771.75
2024-01-10T09:21:20.890Z,101762.16
2024-01-10T09:26:22.718Z,101765.63
2024-01-10T09:31:24.335Z,101768.97
2024-01-10T09:36:25.956Z,101761.13
2024-01-10T09:41:30.059Z,101758.41
2024-01-10T09:46:34.007Z,101756.59
2024-01-10T09:51:35.727Z,101746.13
2024-01-10T09:56:37.412Z,101734.72
2024-01-10T10:01:42.240Z,101734.59
2024-01-10T10:06:44.158Z,101726.66
2024-01-10T10:11:54.528Z,101726.66
2024-01-10T10:16:56.217Z,101731.72
2024-01-10T10:22:09.510Z,101722.91
2024-01-10T10:27:12.762Z,101725.31
2024-01-10T10:32:14.574Z,101722.53
2024-01-10T10:37:16.363Z,101724.97
2024-01-10T10:42:21.510Z,101719.59
2024-01-10T10:47:25.532Z,101710.69
2024-01-10T10:52:27.580Z,101709.59
2024-01-10T10:57:30.102Z,101712.78
2024-01-10T11:02:32.428Z,101718.72
2024-01-10T11:07:37.020Z,101712.41
2024-01-10T11:12:49.041Z,101712.22
2024-01-10T11:18:13.649Z,101691.91
2024-01-10T11:23:30.655Z,101697.84
2024-01-10T11:28:32.595Z,101686.22
2024-01-10T11:33:37.677Z,101685.22
2024-01-10T11:38:55.109Z,101682.41
2024-01-10T11:44:12.180Z,101678.72
2024-01-10T11:49:16.698Z,101675.91
2024-01-10T11:54:44.005Z,101670.22
2024-01-10T11:59:46.571Z,101656.94
2024-01-10T12:04:49.310Z,101658.00
2024-01-10T12:09:51.281Z,101656.28
2024-01-10T12:14:53.049Z,101653.31
2024-01-10T12:19:54.979Z,101655.16
2024-01-10T12:24:56.643Z,101656.84
2024-01-10T12:30:03.862Z,101660.63
2024-01-10T12:35:06.265Z,101645.75
2024-01-10T12:40:11.149Z,101646.09
2024-01-10T12:45:25.618Z,101638.16
2024-01-10T12:50:27.521Z,101631.84
2024-01-10T12:55:29.697Z,101626.41
2024-01-10T13:00:36.027Z,101617.53
2024-01-10T13:05:37.849Z,101621.03
2024-01-10T13:10:40.141Z,101629.16
2024-01-10T13:15:43.535Z,101627.34
2024-01-10T13:20:46.685Z,101624.13
2024-01-10T13:25:49.589Z,101624.78
2024-01-10T13:30:52.131Z,101632.66
2024-01-10T13:35:54.387Z,101630.81
2024-01-10T13:40:56.304Z,101633.09
2024-01-10T13:45:58.092Z,101630.44
2024-01-10T13:50:59.833Z,101627.50
2024-01-10T13:56:01.476Z,101621.28
2024-01-10T14:01:03.311Z,101624.16
2024-01-10T14:06:05.389Z,101616.72
2024-01-10T14:11:07.311Z,101617.25
2024-01-10T14:16:09.007Z,101619.88
2024-01-10T14:21:11.069Z,101620.75
2024-01-10T14:26:12.984Z,101609.03
2024-01-10T14:31:22.888Z,101619.00
2024-01-10T14:36:31.411Z,101624.91
2024-01-10T14:41:33.224Z,101618.34
2024-01-10T14:46:34.994Z,101616.72
2024-01-10T14:51:36.656Z,101616.72
2024-01-10T14:56:39.890Z,101621.09
2024-01-10T15:01:46.691Z,101624.66
2024-01-10T15:06:48.611Z,101624.84
2024-01-10T15:11:51.563Z,101632.91
2024-01-10T15:16:54.735Z,101628.50
2024-01-10T15:21:57.135Z,101635.53
2024-01-10T15:27:03.385Z,101637.47
2024-01-10T15:32:06.110Z,101640.84
2024-01-10T15:37:08.033Z,101641.25
2024-01-10T15:42:12.669Z,101639.41
2024-01-10T15:47:14.299Z,101641.19
2024-01-10T15:52:16.031Z,101643.13
2024-01-10T15:57:18.071Z,101640.56
2024-01-10T16:02:19.705Z,101633.69
2024-01-10T16:07:24.256Z,101638.25
2024-01-10T16:12:25.895Z,101626.78
2024-01-10T16:17:27.715Z,101641.91
2024-01-10T16:22:29.439Z,101648.19
2024-01-10T16:27:31.041Z,101636.97
2024-01-10T16:32:33.122Z,101630.91
2024-01-10T16:37:34.927Z,101640.69
2024-01-10T16:42:37.030Z,101637.41
2024-01-10T16:47:38.933Z,101644.34
2024-01-10T16:52:40.702Z,101632.38
2024-01-10T16:57:42.325Z,101636.81
2024-01-10T17:02:44.049Z,101635.69
2024-01-10T17:07:45.862Z,101639.41
2024-01-10T17:12:47.608Z,101635.22
2024-01-10T17:17:49.434Z,101629.97
2024-01-10T17:22:51.743Z,101633.69
2024-01-10T17:27:53.803Z,101626.56
2024-01-10T17:32:55.546Z,101646.00
2024-01-10T17:37:57.313Z,101641.25
2024-01-10T17:43:00.298Z,101634.19
2024-01-10T17:48:02.163Z,101640.66
2024-01-10T17:53:04.773Z,101644.09
2024-01-10T17:58:06.516Z,101641.75
2024-01-10T18:03:08.396Z,101639.34
2024-01-10T18:08:10.069Z,101641.06
2024-01-10T18:13:13.460Z,101631.50
2024-01-10T18:18:16.706Z,101613.34
2024-01-10T18:23:18.438Z,101619.75
2024-01-10T18:28:20.714Z,101638.97
2024-01-10T18:33:22.502Z,101635.41
2024-01-10T18:38:24.563Z,101638.16
2024-01-10T18:43:26.682Z,101632.16
2024-01-10T18:48:28.688Z,101628.78
2024-01-10T18:53:31.430Z,101632.22
2024-01-10T18:58:33.079Z,101627.31
2024-01-10T19:03:34.696Z,101626.25
2024-01-10T19:08:36.431Z,101632.03
2024-01-10T19:13:41.362Z,101627.03
2024-01-10T19:18:43.174Z,101625.94
2024-01-10T19:23:47.301Z,101623.81
2024-01-10T19:28:49.100Z,101610.88
2024-01-10T19:33:53.057Z,101610.38
2024-01-10T19:38:55.138Z,101616.16
2024-01-10T19:43:57.053Z,101624.75
2024-01-10T19:48:58.809Z,101622.34
2024-01-10T19:54:00.504Z,101614.53
2024-01-10T19:59:02.221Z,101616.72
2024-01-10T20:04:03.982Z,101623.41
2024-01-10T20:09:05.657Z,101625.13
2024-01-10T20:14:07.874Z,101619.25
2024-01-10T20:19:10.222Z,101622.88
2024-01-10T20:24:12.663Z,101634.53
2024-01-10T20:29:14.470Z,101640.44
2024-01-10T20:34:16.945Z,101646.44
2024-01-10T20:39:18.739Z,101652.47
2024-01-10T20:44:20.400Z,101646.34
2024-01-10T20:49:22.189Z,101649.91
2024-01-10T20:54:23.897Z,101662.88
2024-01-10T20:59:25.609Z,101656.78
2024-01-10T21:04:27.321Z,101658.16
2024-01-10T21:09:28.936Z,101664.56
2024-01-10T21:14:30.734Z,101666.19
2024-01-10T21:19:32.420Z,101657.94
2024-01-10T21:24:35.012Z,101671.56
2024-01-10T21:29:36.992Z,101667.78
2024-01-10T21:34:38.769Z,101674.06
2024-01-10T21:39:40.468Z,101670.97
2024-01-10T21:44:43.457Z,101681.59
2024-01-10T21:49:45.265Z,101682.75
2024-01-10T21:54:46.944Z,101687.41
2024-01-10T21:59:48.867Z,101699.38
2024-01-10T22:04:50.628Z,101695.16
2024-01-10T22:09:52.274Z,101704.47
2024-01-10T22:14:54.049Z,101702.94
2024-01-10T22:19:55.676Z,101713.09
2024-01-10T22:24:57.867Z,101714.28
2024-01-10T22:29:59.925Z,101708.09
2024-01-10T22:35:01.534Z,101702.25
2024-01-10T22:40:03.250Z,101705.56
2024-01-10T22:45:08.735Z,101693.78
2024-01-10T22:50:12.208Z,101694.22
2024-01-10T22:55:14.061Z,101694.53
2024-01-10T23:00:15.950Z,101701.53
2024-01-10T23:05:17.753Z,101702.63
2024-01-10T23:10:19.660Z,101696.28
2024-01-10T23:15:21.332Z,101686.63
2024-01-10T23:20:23.031Z,101684.09
2024-01-10T23:25:24.777Z,101686.78
2024-01-10T23:30:26.501Z,101684.16
2024-01-10T23:35:37.004Z,101683.31
2024-01-10T23:40:46.941Z,101681.63
2024-01-10T23:45:48.614Z,101677.44
2024-01-10T23:50:50.581Z,101664.56
2024-01-10T23:55:52.722Z,101654.69
